Time;durP1;ratioP1;P1;durP2;ratioP2;P2;SDS_P1;SDS_P2;PMS_P1;PMS_P2;Temp;Humidity;BMP_temperature;BMP_pressure;BME280_temperature;BME280_humidity;BME280_pressure;Samples;Min_cycle;Max_cycle;Signal;HPM_P1;HPM_P2
2022/07/07 00:00:28;;;;;;;2.15;0.82;;;;;;;17.43;72.26;99241.41;1772984;79;20998;-44
2022/07/07 00:02:55;;;;;;;1.45;0.88;;;;;;;17.38;72.54;99233.80;1773127;81;21778;-43
2022/07/07 00:05:22;;;;;;;1.12;0.82;;;;;;;17.40;72.15;99232.03;1773009;81;21033;-43
2022/07/07 00:07:49;;;;;;;2.30;0.70;;;;;;;17.42;71.98;99243.38;1773142;81;21491;-43
2022/07/07 00:10:16;;;;;;;1.60;0.70;;;;;;;17.43;71.08;99241.41;1773014;81;21025;-43
2022/07/07 00:12:43;;;;;;;1.72;0.75;;;;;;;17.42;70.80;99233.00;1776811;79;21079;-43
2022/07/07 00:15:11;;;;;;;1.10;0.70;;;;;;;17.39;70.57;99230.47;1789715;79;21231;-43
2022/07/07 00:17:38;;;;;;;3.92;0.60;;;;;;;17.32;70.54;99237.41;1789554;79;21008;-43
2022/07/07 00:20:07;;;;;;;1.00;0.60;;;;;;;17.25;70.91;99240.21;1789442;80;21488;-43
2022/07/07 00:22:34;;;;;;;2.33;0.50;;;;;;;17.22;70.65;99228.70;1789562;79;21538;-43
2022/07/07 00:25:02;;;;;;;3.37;0.60;;;;;;;17.21;70.82;99231.25;1789541;79;21510;-43
2022/07/07 00:27:30;;;;;;;1.90;0.65;;;;;;;17.18;70.65;99215.64;1789685;79;21224;-43
2022/07/07 00:29:56;;;;;;;3.75;0.80;;;;;;;17.17;70.59;99224.45;1789645;79;21497;-43
2022/07/07 00:32:24;;;;;;;2.75;0.80;;;;;;;17.14;70.41;99223.87;1789655;80;20921;-44
2022/07/07 00:34:51;;;;;;;1.52;0.60;;;;;;;17.08;70.38;99226.11;1789666;79;20882;-44
2022/07/07 00:37:18;;;;;;;1.27;0.55;;;;;;;17.00;70.51;99226.75;1789567;80;21026;-44
2022/07/07 00:39:45;;;;;;;2.98;0.78;;;;;;;16.99;70.87;99228.55;1789861;79;21455;-44
2022/07/07 00:42:15;;;;;;;2.15;0.82;;;;;;;16.97;71.00;99235.78;1789549;80;21482;-44
2022/07/07 00:44:43;;;;;;;4.53;0.53;;;;;;;16.95;70.87;99235.41;1789528;80;21004;-44
2022/07/07 00:47:10;;;;;;;0.82;0.50;;;;;;;16.97;71.02;99235.00;1789864;80;20949;-44
2022/07/07 00:49:39;;;;;;;3.02;0.65;;;;;;;17.02;71.00;99237.31;1789732;79;21517;-44
2022/07/07 00:52:07;;;;;;;0.65;0.53;;;;;;;17.05;70.77;99244.11;1789650;80;21896;-44
2022/07/07 00:54:35;;;;;;;4.72;0.78;;;;;;;17.03;70.63;99244.34;1789895;80;20917;-44
2022/07/07 00:57:04;;;;;;;2.17;0.60;;;;;;;16.95;70.71;99249.88;1789578;79;20894;-44
2022/07/07 00:59:33;;;;;;;3.60;0.60;;;;;;;16.90;70.89;99253.05;1789677;80;21036;-44
2022/07/07 01:02:01;;;;;;;1.27;0.60;;;;;;;16.92;70.84;99257.54;1789604;79;21001;-44
2022/07/07 01:04:28;;;;;;;2.92;0.72;;;;;;;16.95;70.73;99264.94;1789670;80;21224;-44
2022/07/07 01:06:55;;;;;;;1.82;0.80;;;;;;;16.98;70.66;99274.91;1789572;79;20977;-44
2022/07/07 01:09:23;;;;;;;2.37;0.50;;;;;;;17.03;70.73;99275.84;1789448;80;21044;-44
2022/07/07 01:11:54;;;;;;;2.08;0.57;;;;;;;17.07;70.89;99277.95;1789551;80;21000;-44
2022/07/07 01:14:23;;;;;;;4.25;0.50;;;;;;;17.17;70.83;99283.94;1789475;80;21060;-44
2022/07/07 01:16:50;;;;;;;2.42;0.60;;;;;;;17.23;70.33;99287.80;1789823;80;21087;-44
2022/07/07 01:19:18;;;;;;;1.85;0.70;;;;;;;17.20;69.94;99292.70;1789672;79;20993;-44
2022/07/07 01:22:09;;;;;;;2.40;0.70;;;;;;;17.12;70.04;99290.63;1789855;80;20925;-44
2022/07/07 01:24:36;;;;;;;3.10;0.68;;;;;;;17.05;70.36;99290.67;1789714;80;21491;-44
2022/07/07 01:27:13;;;;;;;2.95;0.70;;;;;;;16.99;70.67;99295.05;1789584;80;21051;-44
2022/07/07 01:29:42;;;;;;;3.33;0.80;;;;;;;16.94;70.97;99296.23;1789571;80;21267;-44
2022/07/07 01:32:09;;;;;;;1.20;0.50;;;;;;;16.98;70.97;99296.81;1790020;79;20925;-44
2022/07/07 01:34:41;;;;;;;0.57;0.40;;;;;;;17.01;70.94;99293.26;1790034;79;21550;-44
2022/07/07 01:37:08;;;;;;;1.57;0.50;;;;;;;17.03;70.95;99299.13;1789946;80;21076;-44
2022/07/07 01:39:37;;;;;;;1.95;0.78;;;;;;;16.98;71.21;99298.19;1789679;79;21515;-44
2022/07/07 01:42:05;;;;;;;1.90;0.78;;;;;;;16.95;71.18;99299.17;1790010;80;21777;-44
2022/07/07 01:44:34;;;;;;;2.80;0.50;;;;;;;16.93;71.43;99293.33;1789787;80;21000;-44
2022/07/07 01:47:01;;;;;;;2.25;0.72;;;;;;;16.96;71.48;99297.20;1789169;79;21041;-44
2022/07/07 01:49:30;;;;;;;3.92;0.90;;;;;;;17.00;71.49;99283.48;1789890;80;21467;-44
2022/07/07 01:51:58;;;;;;;2.40;0.60;;;;;;;17.06;71.45;99290.88;1770415;80;21048;-44
2022/07/07 01:54:26;;;;;;;3.15;0.75;;;;;;;17.10;71.25;99295.72;1789729;79;21758;-44
2022/07/07 01:56:54;;;;;;;1.95;0.72;;;;;;;17.14;71.07;99299.20;1789870;79;20969;-44
2022/07/07 01:59:21;;;;;;;2.58;0.70;;;;;;;17.16;70.90;99304.29;1789830;80;20956;-44
2022/07/07 02:01:48;;;;;;;4.12;0.70;;;;;;;17.22;70.77;99301.31;1789583;80;21056;-44
2022/07/07 02:04:16;;;;;;;1.75;0.55;;;;;;;17.27;70.60;99296.77;1789878;79;21515;-44
2022/07/07 02:06:43;;;;;;;3.55;1.00;;;;;;;17.27;70.39;99297.55;1789827;80;21217;-44
2022/07/07 02:09:10;;;;;;;2.42;1.00;;;;;;;17.28;70.62;99301.06;1789617;79;20945;-44
2022/07/07 02:11:37;;;;;;;1.70;0.57;;;;;;;17.31;70.39;99297.50;1789653;80;21063;-44
2022/07/07 02:14:05;;;;;;;1.07;0.50;;;;;;;17.37;70.40;99304.89;1781041;79;21578;-44
2022/07/07 02:16:33;;;;;;;4.00;0.68;;;;;;;17.37;69.84;99302.73;1773065;81;21509;-44
2022/07/07 02:19:02;;;;;;;3.42;0.62;;;;;;;17.30;70.16;99303.57;1773122;79;21146;-44
2022/07/07 02:21:29;;;;;;;4.22;0.72;;;;;;;17.25;70.29;99305.38;1773250;81;20990;-44
2022/07/07 02:23:57;;;;;;;1.47;0.72;;;;;;;17.24;70.31;99313.99;1773155;79;21020;-44
2022/07/07 02:26:25;;;;;;;1.67;0.60;;;;;;;17.23;70.52;99308.34;1773169;79;21026;-44
2022/07/07 02:28:52;;;;;;;3.65;0.70;;;;;;;17.26;70.41;99304.79;1773371;81;21073;-44
2022/07/07 02:31:18;;;;;;;1.22;0.53;;;;;;;17.28;70.59;99296.33;1773123;81;21331;-44
2022/07/07 02:33:46;;;;;;;1.15;0.62;;;;;;;17.29;70.32;99301.23;1773135;81;21004;-44
2022/07/07 02:36:13;;;;;;;1.52;0.60;;;;;;;17.24;70.46;99309.30;1773115;79;20998;-44
2022/07/07 02:38:40;;;;;;;4.72;0.68;;;;;;;17.23;70.64;99306.98;1773055;79;21083;-44
2022/07/07 02:41:07;;;;;;;1.95;0.60;;;;;;;17.22;70.68;99303.45;1773373;79;21601;-44
2022/07/07 02:43:35;;;;;;;2.42;0.65;;;;;;;17.26;70.59;99300.68;1773204;81;21192;-44
2022/07/07 02:46:03;;;;;;;0.90;0.70;;;;;;;17.32;70.64;99300.44;1772819;81;22065;-44
2022/07/07 02:48:32;;;;;;;1.65;0.65;;;;;;;17.37;70.64;99293.14;1773205;81;21073;-44
2022/07/07 02:50:59;;;;;;;0.72;0.60;;;;;;;17.39;70.34;99290.76;1773079;79;21034;-44
2022/07/07 02:53:27;;;;;;;2.37;0.70;;;;;;;17.40;70.48;99295.06;1773147;79;21017;-44
2022/07/07 02:55:54;;;;;;;3.02;0.50;;;;;;;17.44;70.40;99297.77;1773227;81;21297;-44
2022/07/07 02:58:22;;;;;;;1.40;0.78;;;;;;;17.48;70.30;99302.02;1773056;79;20926;-44
2022/07/07 03:00:51;;;;;;;1.95;1.20;;;;;;;17.54;70.25;99297.66;1773148;81;20997;-44
2022/07/07 03:03:18;;;;;;;1.62;0.72;;;;;;;17.59;70.33;99304.09;1773112;79;20949;-44
2022/07/07 03:05:45;;;;;;;3.10;0.80;;;;;;;17.61;70.08;99309.97;1773239;79;21057;-44
2022/07/07 03:08:12;;;;;;;3.92;0.80;;;;;;;17.59;70.08;99311.55;1773149;81;21235;-44
2022/07/07 03:10:40;;;;;;;2.52;1.00;;;;;;;17.57;69.94;99318.02;1773262;79;21005;-44
2022/07/07 03:13:07;;;;;;;0.93;0.60;;;;;;;17.58;69.85;99324.44;1772994;81;21544;-44
2022/07/07 03:15:35;;;;;;;2.77;0.85;;;;;;;17.58;69.62;99326.40;1773089;81;21034;-44
2022/07/07 03:18:03;;;;;;;2.22;0.72;;;;;;;17.54;69.92;99330.55;1773111;81;21026;-44
2022/07/07 03:20:30;;;;;;;2.20;0.85;;;;;;;17.50;69.91;99324.92;1772862;81;23132;-43
2022/07/07 03:22:57;;;;;;;1.85;0.80;;;;;;;17.48;70.25;99328.06;1773090;79;21053;-43
2022/07/07 03:25:24;;;;;;;2.85;0.70;;;;;;;17.44;70.12;99334.17;1773210;81;21499;-43
2022/07/07 03:27:51;;;;;;;2.22;0.80;;;;;;;17.45;70.13;99343.95;1773324;79;21484;-43
2022/07/07 03:30:18;;;;;;;1.85;0.90;;;;;;;17.50;70.08;99346.84;1766593;79;21025;-43
2022/07/07 03:32:46;;;;;;;0.82;0.70;;;;;;;17.52;70.28;99344.49;1773176;81;21134;-43
2022/07/07 03:35:13;;;;;;;3.37;1.10;;;;;;;17.52;70.35;99350.76;1773055;81;21456;-43
2022/07/07 03:37:40;;;;;;;3.47;1.00;;;;;;;17.57;70.26;99357.76;1773033;81;21590;-43
2022/07/07 03:40:09;;;;;;;1.85;0.80;;;;;;;17.62;69.90;99348.51;1773164;79;21613;-43
2022/07/07 03:42:36;;;;;;;1.37;0.93;;;;;;;17.66;70.04;99347.91;1773183;81;21551;-43
2022/07/07 03:45:05;;;;;;;1.02;0.93;;;;;;;17.69;69.77;99354.53;1772946;81;23193;-43
2022/07/07 03:47:33;;;;;;;1.37;0.62;;;;;;;17.68;69.50;99359.23;1772969;79;20992;-43
2022/07/07 03:49:59;;;;;;;3.25;0.90;;;;;;;17.61;68.76;99359.90;1773152;81;21065;-44
2022/07/07 03:52:26;;;;;;;3.00;0.70;;;;;;;17.49;69.34;99365.84;1773172;79;21112;-44
2022/07/07 03:54:53;;;;;;;3.40;1.07;;;;;;;17.49;69.68;99370.73;1773114;81;20997;-44
2022/07/07 03:57:21;;;;;;;2.12;1.07;;;;;;;17.50;69.75;99366.81;1773219;81;21220;-44
2022/07/07 03:59:49;;;;;;;2.50;0.93;;;;;;;17.49;69.95;99367.22;1773001;81;20969;-44
2022/07/07 04:02:16;;;;;;;2.12;1.20;;;;;;;17.50;70.00;99366.81;1773032;81;21012;-44
2022/07/07 04:04:44;;;;;;;1.07;0.90;;;;;;;17.52;70.14;99358.98;1773165;81;20922;-44
2022/07/07 04:07:11;;;;;;;3.80;1.72;;;;;;;17.54;69.97;99351.11;1773113;81;20974;-44
2022/07/07 04:09:38;;;;;;;1.12;1.00;;;;;;;17.57;70.06;99344.80;1773070;79;21299;-44
2022/07/07 04:12:07;;;;;;;1.65;0.90;;;;;;;17.60;69.60;99339.15;1773037;81;21534;-44
2022/07/07 04:14:34;;;;;;;2.45;1.20;;;;;;;17.60;69.83;99347.38;1780829;80;20989;-44
2022/07/07 04:17:01;;;;;;;1.70;0.90;;;;;;;17.61;69.43;99341.49;1789552;80;20988;-44
2022/07/07 04:19:29;;;;;;;1.12;0.80;;;;;;;17.63;69.55;99343.22;1789620;80;21076;-44
2022/07/07 04:21:56;;;;;;;2.60;1.20;;;;;;;17.67;69.31;99354.92;1789833;80;21895;-44
2022/07/07 04:24:23;;;;;;;2.72;1.05;;;;;;;17.72;68.92;99346.25;1789905;80;20965;-44
2022/07/07 04:26:50;;;;;;;1.67;1.20;;;;;;;17.75;69.11;99343.30;1789690;80;20953;-44
2022/07/07 04:29:18;;;;;;;2.35;1.02;;;;;;;17.78;69.15;99334.25;1789577;80;21086;-44
2022/07/07 04:31:45;;;;;;;2.08;1.20;;;;;;;17.83;69.25;99337.14;1789646;80;20985;-44
2022/07/07 04:34:12;;;;;;;2.00;0.93;;;;;;;17.92;69.11;99367.02;1789699;79;21511;-44
2022/07/07 04:36:40;;;;;;;1.92;1.10;;;;;;;18.00;68.37;99379.48;1789607;80;20996;-44
2022/07/07 04:39:08;;;;;;;1.15;1.05;;;;;;;17.99;68.28;99383.41;1789660;80;21008;-44
2022/07/07 04:41:36;;;;;;;4.10;1.00;;;;;;;17.99;68.29;99382.63;1789683;80;21542;-44
2022/07/07 04:44:05;;;;;;;1.92;1.07;;;;;;;17.95;68.31;99381.89;1789876;79;20914;-44
2022/07/07 04:46:33;;;;;;;2.33;1.20;;;;;;;18.02;68.76;99387.28;1770030;80;21233;-44
2022/07/07 04:49:00;;;;;;;1.60;1.00;;;;;;;18.06;68.41;99383.31;1789526;79;21004;-44
2022/07/07 04:51:27;;;;;;;3.60;1.02;;;;;;;18.11;68.17;99377.97;1789574;80;21573;-44
2022/07/07 04:53:54;;;;;;;1.47;0.90;;;;;;;18.15;67.95;99384.22;1789686;80;21032;-44
2022/07/07 04:56:21;;;;;;;4.55;1.10;;;;;;;18.12;67.47;99379.53;1789649;80;21013;-44
2022/07/07 04:58:48;;;;;;;2.15;0.90;;;;;;;18.07;67.31;99370.38;1789775;80;21885;-44
2022/07/07 05:01:15;;;;;;;3.85;1.15;;;;;;;18.09;67.79;99369.39;1789426;79;20949;-44
2022/07/07 05:03:42;;;;;;;1.85;1.17;;;;;;;18.12;67.13;99367.19;1789666;80;21541;-44
2022/07/07 05:06:10;;;;;;;1.90;1.10;;;;;;;18.06;66.83;99359.21;1789444;80;21560;-44
2022/07/07 05:08:39;;;;;;;1.87;1.20;;;;;;;17.95;67.42;99358.58;1789861;80;21029;-44
2022/07/07 05:11:06;;;;;;;3.20;1.10;;;;;;;17.89;67.73;99363.72;1789579;79;21122;-44
2022/07/07 05:13:34;;;;;;;2.30;1.10;;;;;;;17.89;68.17;99365.09;1789501;79;21475;-44
2022/07/07 05:16:02;;;;;;;1.35;1.07;;;;;;;17.99;68.18;99370.28;1787159;79;21032;-44
2022/07/07 05:19:11;;;;;;;2.50;1.22;;;;;;;18.16;67.80;99383.01;1779019;79;23981;-43
2022/07/07 05:21:38;;;;;;;4.10;1.80;;;;;;;18.14;67.83;99392.27;1739125;82;20965;-44
2022/07/07 05:24:05;;;;;;;3.85;1.70;;;;;;;18.21;67.66;99387.45;1739156;82;21221;-44
2022/07/07 05:26:33;;;;;;;3.20;1.60;;;;;;;18.28;66.99;99395.43;1739152;82;20939;-44
2022/07/07 05:29:00;;;;;;;6.95;1.77;;;;;;;18.29;66.79;99401.89;1741179;81;20966;-44
2022/07/07 05:31:28;;;;;;;4.60;1.62;;;;;;;18.31;66.36;99403.61;1757070;81;21298;-44
2022/07/07 05:33:55;;;;;;;2.27;1.35;;;;;;;18.33;66.38;99410.08;1757489;81;20933;-44
2022/07/07 05:36:22;;;;;;;2.35;1.50;;;;;;;18.38;66.60;99406.87;1757330;81;21522;-44
2022/07/07 05:38:50;;;;;;;3.22;1.70;;;;;;;18.42;66.74;99409.77;1757164;81;21507;-44
2022/07/07 05:41:18;;;;;;;2.65;1.50;;;;;;;18.47;66.24;99414.80;1723765;83;21027;-44
2022/07/07 05:43:46;;;;;;;1.82;1.37;;;;;;;18.51;66.10;99419.65;1723607;83;21551;-44
2022/07/07 05:46:13;;;;;;;7.35;1.52;;;;;;;18.54;66.26;99420.22;1723751;83;21474;-44
2022/07/07 05:48:40;;;;;;;2.42;1.70;;;;;;;18.60;65.10;99420.55;1723833;83;21096;-44
2022/07/07 05:51:07;;;;;;;2.92;1.40;;;;;;;18.63;65.32;99421.90;1723880;83;20905;-44
2022/07/07 05:53:34;;;;;;;1.98;1.42;;;;;;;18.69;65.14;99430.43;1723647;83;21024;-44
2022/07/07 05:56:01;;;;;;;1.95;1.40;;;;;;;18.74;64.97;99426.45;1723877;83;21519;-44
2022/07/07 05:58:28;;;;;;;1.50;1.40;;;;;;;18.74;65.02;99433.31;1723729;83;21023;-44
2022/07/07 06:00:56;;;;;;;1.92;1.20;;;;;;;18.78;65.04;99436.22;1723731;83;21239;-44
2022/07/07 06:03:23;;;;;;;3.92;1.75;;;;;;;18.83;64.85;99432.23;1717884;83;21508;-44
2022/07/07 06:05:50;;;;;;;2.80;1.65;;;;;;;18.88;65.25;99438.64;1723754;83;20960;-44
2022/07/07 06:08:18;;;;;;;3.02;1.90;;;;;;;18.92;65.02;99438.00;1716815;83;20925;-44
2022/07/07 06:10:45;;;;;;;3.98;1.70;;;;;;;18.93;64.66;99430.70;1723828;83;21056;-44
2022/07/07 06:13:13;;;;;;;3.85;2.02;;;;;;;18.92;64.26;99427.01;1723684;83;21148;-44
2022/07/07 06:15:40;;;;;;;2.83;2.00;;;;;;;18.92;64.04;99435.25;1723832;83;21553;-44
2022/07/07 06:18:07;;;;;;;2.12;1.80;;;;;;;18.92;63.98;99432.50;1720132;83;21024;-44
2022/07/07 06:20:35;;;;;;;2.33;1.90;;;;;;;18.90;63.86;99433.50;1715917;83;20993;-44
2022/07/07 06:23:02;;;;;;;2.50;1.77;;;;;;;18.88;64.20;99427.03;1752082;81;21073;-44
2022/07/07 06:25:30;;;;;;;2.20;1.85;;;;;;;18.89;64.47;99429.19;1752149;81;21228;-44
2022/07/07 06:27:56;;;;;;;5.15;2.05;;;;;;;18.95;64.84;99428.33;1709787;83;20969;-44
2022/07/07 06:30:24;;;;;;;3.35;1.80;;;;;;;19.00;64.02;99431.98;1715516;83;21020;-44
2022/07/07 06:32:51;;;;;;;4.87;2.30;;;;;;;18.96;64.17;99437.34;1751750;81;21002;-44
2022/07/07 06:35:21;;;;;;;4.50;1.95;;;;;;;18.94;64.21;99443.25;1751594;82;21342;-44
2022/07/07 06:37:48;;;;;;;4.35;1.95;;;;;;;18.96;64.25;99437.34;1715494;83;21711;-44
2022/07/07 06:40:15;;;;;;;2.67;2.12;;;;;;;18.99;64.52;99437.88;1715405;83;21048;-44
2022/07/07 06:42:44;;;;;;;2.70;2.05;;;;;;;19.09;64.71;99436.95;1715462;83;20973;-44
2022/07/07 06:45:13;;;;;;;2.52;1.77;;;;;;;19.23;64.05;99440.88;1715246;83;21080;-44
2022/07/07 06:47:39;;;;;;;1.75;1.60;;;;;;;19.33;63.29;99438.56;1715672;83;21498;-44
2022/07/07 06:50:09;;;;;;;3.85;2.10;;;;;;;19.40;63.19;99441.21;1715457;83;21209;-44
2022/07/07 06:52:36;;;;;;;3.12;1.87;;;;;;;19.53;63.06;99446.33;1751886;82;21012;-44
2022/07/07 06:55:05;;;;;;;2.92;1.75;;;;;;;19.68;62.66;99441.97;1715484;83;21020;-44
2022/07/07 06:57:32;;;;;;;2.08;1.80;;;;;;;19.78;62.45;99441.02;1715853;83;20976;-44
2022/07/07 07:00:00;;;;;;;3.65;1.92;;;;;;;19.84;62.44;99436.00;1715553;83;21092;-44
2022/07/07 07:02:27;;;;;;;1.87;1.42;;;;;;;19.92;62.23;99436.64;1715486;83;21206;-44
2022/07/07 07:04:54;;;;;;;2.40;1.40;;;;;;;19.99;62.06;99435.75;1715511;83;21075;-44
2022/07/07 07:07:21;;;;;;;1.50;1.35;;;;;;;20.12;62.15;99431.17;1715575;83;20993;-44
2022/07/07 07:09:48;;;;;;;3.55;1.45;;;;;;;20.23;61.82;99431.16;1715301;83;21004;-44
2022/07/07 07:12:15;;;;;;;2.52;1.75;;;;;;;20.30;61.07;99433.78;1715462;83;21009;-44
2022/07/07 07:14:44;;;;;;;1.87;1.40;;;;;;;20.34;61.16;99429.58;1715479;83;21137;-44
2022/07/07 07:17:11;;;;;;;2.90;1.90;;;;;;;20.36;60.35;99431.33;1715205;83;21478;-44
2022/07/07 07:19:38;;;;;;;1.55;1.45;;;;;;;20.31;59.92;99432.59;1715287;83;20969;-44
2022/07/07 07:22:05;;;;;;;2.85;1.62;;;;;;;20.25;60.24;99437.00;1715434;83;20981;-44
2022/07/07 07:24:32;;;;;;;2.50;1.40;;;;;;;20.25;60.48;99438.97;1715647;83;21917;-44
2022/07/07 07:26:59;;;;;;;2.98;1.67;;;;;;;20.31;60.65;99440.08;1715276;83;21138;-44
2022/07/07 07:29:26;;;;;;;2.80;1.47;;;;;;;20.41;60.80;99427.30;1715401;83;21025;-44
2022/07/07 07:31:54;;;;;;;4.87;1.55;;;;;;;20.51;60.07;99430.44;1715330;83;21032;-44
2022/07/07 07:34:21;;;;;;;3.60;1.57;;;;;;;20.54;59.73;99442.75;1751444;81;21483;-44
2022/07/07 07:36:47;;;;;;;2.58;1.62;;;;;;;20.56;58.95;99429.95;1751682;82;21790;-44
2022/07/07 07:39:15;;;;;;;3.58;1.98;;;;;;;20.61;59.78;99431.61;1751459;82;21137;-44
2022/07/07 07:41:43;;;;;;;4.10;2.22;;;;;;;20.75;59.67;99436.03;1751466;82;21008;-44
2022/07/07 07:44:11;;;;;;;4.00;1.83;;;;;;;20.82;58.55;99444.14;1751581;82;21041;-44
2022/07/07 07:46:38;;;;;;;4.87;2.15;;;;;;;20.84;58.48;99441.74;1715349;83;21036;-44
2022/07/07 07:49:06;;;;;;;2.47;1.80;;;;;;;20.87;58.60;99455.25;1751402;82;20973;-44
2022/07/07 07:51:34;;;;;;;2.30;1.67;;;;;;;20.93;58.61;99450.80;1715452;83;21877;-44
2022/07/07 07:54:01;;;;;;;2.92;2.30;;;;;;;21.06;58.68;99447.55;1715417;83;21541;-44
2022/07/07 07:56:28;;;;;;;3.67;1.87;;;;;;;21.20;57.44;99449.42;1715402;83;21012;-44
2022/07/07 07:58:55;;;;;;;4.00;2.00;;;;;;;21.31;57.65;99445.64;1715383;83;20992;-44
2022/07/07 08:01:22;;;;;;;3.02;2.15;;;;;;;21.42;57.23;99443.42;1751468;82;21021;-44
2022/07/07 08:03:49;;;;;;;2.47;1.80;;;;;;;21.51;56.66;99438.85;1751527;82;21205;-44
2022/07/07 08:06:16;;;;;;;5.08;2.00;;;;;;;21.60;56.03;99445.91;1751403;82;20973;-44
2022/07/07 08:08:44;;;;;;;3.20;2.08;;;;;;;21.70;55.78;99444.09;1715361;83;20956;-44
2022/07/07 08:11:11;;;;;;;3.67;1.80;;;;;;;21.80;55.88;99441.68;1751306;82;21357;-44
2022/07/07 08:13:39;;;;;;;2.72;1.95;;;;;;;21.95;56.54;99444.88;1751380;82;20966;-44
2022/07/07 08:16:09;;;;;;;2.42;1.65;;;;;;;22.04;55.11;99445.81;1751425;82;22117;-44
2022/07/07 08:18:36;;;;;;;1.90;1.40;;;;;;;22.14;54.98;99441.81;1712389;83;20968;-44
2022/07/07 08:21:04;;;;;;;2.35;1.27;;;;;;;22.17;53.66;99450.03;1707658;84;21017;-44
2022/07/07 08:23:31;;;;;;;1.57;1.37;;;;;;;22.18;54.81;99460.44;1707673;84;20993;-44
2022/07/07 08:25:58;;;;;;;3.10;1.37;;;;;;;22.25;53.12;99456.12;1743564;82;21025;-44
2022/07/07 08:28:25;;;;;;;4.28;1.65;;;;;;;22.33;53.63;99453.33;1743487;81;21222;-44
2022/07/07 08:30:52;;;;;;;2.30;1.37;;;;;;;22.40;53.44;99451.77;1707716;84;21009;-44
2022/07/07 08:33:18;;;;;;;1.92;1.35;;;;;;;22.52;54.11;99449.63;1707989;84;21559;-44
2022/07/07 08:35:46;;;;;;;3.15;1.20;;;;;;;22.67;53.53;99450.78;1743530;81;21013;-44
2022/07/07 08:38:13;;;;;;;1.77;1.20;;;;;;;22.78;51.76;99455.44;1707676;83;21020;-45
2022/07/07 08:40:41;;;;;;;2.00;1.25;;;;;;;22.83;52.54;99452.13;1707625;84;22039;-44
2022/07/07 08:43:09;;;;;;;2.05;1.22;;;;;;;22.88;52.26;99457.11;1743363;82;21021;-44
2022/07/07 08:45:36;;;;;;;2.22;1.20;;;;;;;22.96;52.29;99457.06;1707444;84;21299;-44
2022/07/07 08:48:04;;;;;;;1.27;0.88;;;;;;;22.85;51.06;99424.05;1707701;84;20969;-44
2022/07/07 08:50:31;;;;;;;2.20;1.00;;;;;;;23.18;50.95;99456.42;1743479;82;21088;-45
2022/07/07 08:52:58;;;;;;;1.47;0.93;;;;;;;23.25;50.68;99461.11;1707783;84;21062;-44
2022/07/07 08:55:25;;;;;;;1.32;0.90;;;;;;;23.33;51.29;99467.22;1707694;84;21523;-45
2022/07/07 08:57:52;;;;;;;2.67;1.12;;;;;;;23.43;50.58;99460.55;1707528;84;21012;-45
2022/07/07 09:00:19;;;;;;;2.15;1.05;;;;;;;23.25;49.73;99443.74;1707716;84;21020;-45
2022/07/07 09:02:47;;;;;;;1.10;0.95;;;;;;;23.39;49.00;99465.42;1707701;84;21038;-45
2022/07/07 09:05:14;;;;;;;2.72;1.10;;;;;;;23.32;49.60;99476.73;1743382;81;21102;-44
2022/07/07 09:07:46;;;;;;;1.80;0.80;;;;;;;23.33;49.75;99481.80;1743376;81;20954;-45
2022/07/07 09:10:37;;;;;;;1.35;0.98;;;;;;;23.48;50.32;99482.16;1707577;83;20993;-44
2022/07/07 09:13:07;;;;;;;1.22;0.90;;;;;;;23.73;50.41;99477.20;1743556;82;21552;-44
2022/07/07 09:15:40;;;;;;;1.82;1.02;;;;;;;24.02;49.98;99490.27;1702122;82;21100;-45
2022/07/07 09:18:08;;;;;;;1.67;1.02;;;;;;;24.15;49.02;99483.33;1743131;81;21227;-45
2022/07/07 09:20:36;;;;;;;1.92;1.00;;;;;;;24.26;49.28;99475.44;1743445;82;21009;-45
2022/07/07 09:23:04;;;;;;;2.20;1.30;;;;;;;24.47;48.25;99469.14;1707667;83;21084;-45
2022/07/07 09:25:32;;;;;;;2.02;0.95;;;;;;;24.68;48.05;99475.31;1707764;84;21029;-44
2022/07/07 09:28:04;;;;;;;2.25;0.90;;;;;;;24.86;47.90;99469.09;1707698;84;21009;-45
2022/07/07 09:30:41;;;;;;;1.10;1.00;;;;;;;24.97;46.60;99466.73;1743482;81;21515;-45
2022/07/07 09:33:13;;;;;;;1.77;0.90;;;;;;;25.03;46.93;99475.21;1707611;83;20973;-45
2022/07/07 09:38:31;;;;;;;3.00;0.93;;;;;;;25.15;45.99;99477.13;1707629;84;21063;-45
2022/07/07 09:41:12;;;;;;;2.08;0.80;;;;;;;25.11;44.21;99482.05;1707930;84;21053;-45
2022/07/07 09:43:49;;;;;;;2.25;1.07;;;;;;;25.05;44.68;99474.93;1707698;84;21844;-45
2022/07/07 09:46:22;;;;;;;1.37;1.05;;;;;;;25.06;45.24;99483.42;1707538;84;20925;-45
2022/07/07 09:48:54;;;;;;;1.98;0.72;;;;;;;24.95;44.78;99478.11;1707622;84;21041;-45
2022/07/07 09:51:32;;;;;;;1.67;0.95;;;;;;;24.82;45.38;99484.32;1707996;84;21558;-45
2022/07/07 09:54:11;;;;;;;1.80;1.07;;;;;;;24.74;45.36;99490.72;1707554;84;21021;-45
2022/07/07 09:56:41;;;;;;;1.00;0.90;;;;;;;24.65;45.16;99486.51;1707733;84;21248;-45
2022/07/07 09:59:17;;;;;;;2.20;1.12;;;;;;;24.61;46.13;99481.10;1707599;84;20937;-45
2022/07/07 10:01:46;;;;;;;1.12;0.80;;;;;;;24.64;45.08;99480.83;1707876;84;21083;-44
2022/07/07 10:04:25;;;;;;;1.12;0.98;;;;;;;24.54;44.56;99488.30;1743436;82;21507;-45
2022/07/07 10:06:52;;;;;;;1.20;0.90;;;;;;;24.53;45.15;99491.52;1743936;81;21520;-45
2022/07/07 10:09:21;;;;;;;2.58;1.02;;;;;;;24.60;44.91;99490.64;1743611;82;21187;-45
2022/07/07 10:11:55;;;;;;;0.90;0.80;;;;;;;24.75;44.40;99486.73;1743686;81;20954;-45
2022/07/07 10:14:31;;;;;;;1.15;0.90;;;;;;;24.85;44.61;99493.11;1743418;82;21037;-45
2022/07/07 10:17:00;;;;;;;3.80;1.10;;;;;;;25.00;44.60;99494.16;1686629;84;21008;-45
2022/07/07 10:19:27;;;;;;;1.20;1.10;;;;;;;25.10;45.04;99497.15;1743543;82;21038;-45
2022/07/07 10:21:56;;;;;;;2.45;1.35;;;;;;;25.22;44.65;99500.46;1707795;84;21092;-45
2022/07/07 10:24:29;;;;;;;1.65;1.10;;;;;;;25.37;43.26;99490.33;1743483;82;21018;-45
2022/07/07 10:26:59;;;;;;;2.62;1.35;;;;;;;25.52;43.33;99481.59;1743862;82;20990;-45
2022/07/07 10:29:47;;;;;;;1.35;1.07;;;;;;;25.70;43.68;99486.48;1743288;81;21479;-44
2022/07/07 10:32:31;;;;;;;1.47;1.00;;;;;;;25.85;42.62;99490.83;1743892;82;21538;-45
2022/07/07 10:35:03;;;;;;;0.82;0.82;;;;;;;25.80;41.66;99495.60;1743631;82;21227;-45
2022/07/07 10:37:42;;;;;;;1.30;1.00;;;;;;;25.70;42.69;99488.48;1743434;81;21499;-45
2022/07/07 10:40:23;;;;;;;2.17;0.90;;;;;;;25.68;42.46;99489.54;1733301;82;21480;-45
2022/07/07 10:43:25;;;;;;;1.60;1.00;;;;;;;25.68;42.25;99489.54;1743676;82;21080;-45
2022/07/07 10:45:54;;;;;;;4.37;1.27;;;;;;;25.62;42.41;99495.53;1743553;81;21076;-45
2022/07/07 10:48:47;;;;;;;3.27;1.40;;;;;;;25.66;42.35;99497.58;1708057;84;21146;-45
2022/07/07 10:51:21;;;;;;;2.80;1.32;;;;;;;25.76;41.97;99493.56;1707709;84;20930;-45
2022/07/07 10:54:06;;;;;;;2.15;1.30;;;;;;;25.93;41.94;99492.84;1743573;82;21005;-45
2022/07/07 10:56:59;;;;;;;2.72;1.20;;;;;;;26.02;42.49;99493.47;1707765;84;21531;-45
2022/07/07 10:59:26;;;;;;;3.62;1.12;;;;;;;26.10;42.39;99493.94;1743579;82;21030;-45
2022/07/07 11:02:08;;;;;;;2.15;1.12;;;;;;;26.11;40.78;99502.44;1663616;84;21243;-45
2022/07/07 11:04:47;;;;;;;3.30;1.30;;;;;;;26.03;41.27;99490.08;1707961;84;21542;-45
2022/07/07 11:07:17;;;;;;;2.12;1.10;;;;;;;26.04;41.66;99493.80;1742264;81;21013;-45
2022/07/07 11:10:11;;;;;;;5.45;1.40;;;;;;;26.03;41.93;99496.41;1743816;81;21024;-45
2022/07/07 11:12:45;;;;;;;1.32;1.10;;;;;;;26.05;41.96;99489.77;1743476;82;21542;-45
2022/07/07 11:15:25;;;;;;;2.12;1.32;;;;;;;26.06;41.36;99495.48;1707574;84;23130;-45
2022/07/07 11:18:00;;;;;;;2.72;1.30;;;;;;;25.97;41.70;99489.91;1743404;82;21004;-45
2022/07/07 11:20:29;;;;;;;1.45;1.10;;;;;;;25.91;42.13;99494.53;1752982;81;21002;-45
2022/07/07 11:23:13;;;;;;;3.02;1.35;;;;;;;25.90;42.91;99497.92;1721091;83;21020;-45
2022/07/07 11:25:41;;;;;;;2.30;1.30;;;;;;;26.01;42.91;99497.48;1720423;83;21060;-45
2022/07/07 11:28:09;;;;;;;2.15;1.47;;;;;;;26.07;41.87;99501.81;1720722;83;21905;-45
2022/07/07 11:30:39;;;;;;;2.10;1.30;;;;;;;26.03;41.72;99501.97;1721212;83;21080;-45
2022/07/07 11:33:07;;;;;;;3.87;1.75;;;;;;;25.94;42.25;99508.91;1720824;83;21766;-45
2022/07/07 11:35:36;;;;;;;3.47;1.70;;;;;;;25.77;41.97;99501.45;1720822;83;21080;-45
2022/07/07 11:38:05;;;;;;;2.75;1.40;;;;;;;25.59;42.39;99499.23;1720945;83;21076;-45
2022/07/07 11:40:33;;;;;;;2.87;1.40;;;;;;;25.43;43.44;99501.00;1721100;83;21109;-45
2022/07/07 11:43:00;;;;;;;4.80;1.47;;;;;;;25.39;44.03;99505.92;1715496;82;21086;-45
2022/07/07 11:45:31;;;;;;;3.37;1.60;;;;;;;25.37;43.13;99502.03;1702380;84;21069;-45